Friday, January 18, 2019, 2:36 AM EST
Back to Local

KSLK, Adirondack Regional Airport

Location: Saranac Lake, NY, United States Lat: 44.4
Local Time: 2:36 AM EST ( 7:36 GMT) Lon: -74.2
Time Zone: US/Eastern Elev: 1663 ft

Show me the last for .
Show Decoded

2019-01-18 01:51 METAR KSLK 180651Z AUTO 00000KT 10SM OVC024 M12/M15 A2997 RMK AO2 SLP185
                 T11221150 =
2019-01-18 00:51 METAR KSLK 180551Z AUTO 00000KT 10SM OVC023 M13/M16 A2998 RMK AO2 SLP188
                 T11331161 11133 21167 58027 =
2019-01-18 00:22 METAR KSLK 180522Z AUTO 00000KT 10SM BKN025 OVC038 M14/M16 A2999 RMK AO2
                 T11391161 =
2019-01-17 23:51 METAR KSLK 180451Z AUTO 00000KT 10SM SCT035 OVC095 M14/M16 A3001 RMK AO2 SLP200
                 T11391161 411171294 =
2019-01-17 22:51 METAR KSLK 180351Z AUTO 36003KT 10SM OVC100 M15/M17 A3003 RMK AO2 SLP212
                 T11501167 =
2019-01-17 21:51 METAR KSLK 180251Z AUTO 00000KT 10SM OVC080 M14/M17 A3006 RMK AO2 SLP224
                 T11441167 56022 =
2019-01-17 20:51 METAR KSLK 180151Z AUTO 00000KT 10SM OVC090 M14/M17 A3007 RMK AO2 SLP232
                 T11441167 =
2019-01-17 19:51 METAR KSLK 180051Z AUTO 05005KT 10SM OVC110 M14/M17 A3011 RMK AO2 SLP248
                 T11441172 =
2019-01-17 18:51 METAR KSLK 172351Z AUTO 00000KT 10SM SCT120 M16/M17 A3013 RMK AO2 SLP256
                 T11611172 11117 21167 56006 =
2019-01-17 17:51 METAR KSLK 172251Z AUTO 00000KT 10SM CLR M16/M18 A3013 RMK AO2 SLP254 T11561178
                 =
2019-01-17 16:51 METAR KSLK 172151Z AUTO 00000KT 10SM FEW110 M14/M18 A3012 RMK AO2 SLP251
                 T11441183 =
2019-01-17 15:51 METAR KSLK 172051Z AUTO 00000KT 10SM CLR M12/M19 A3015 RMK AO2 SLP256 T11171194
                 56019 =
2019-01-17 14:51 METAR KSLK 171951Z AUTO 22004KT 10SM CLR M12/M22 A3017 RMK AO2 SLP265 T11171217
                 =
2019-01-17 13:51 METAR KSLK 171851Z AUTO VRB04KT 10SM CLR M13/M21 A3018 RMK AO2 SLP267 T11281211
                 =
2019-01-17 12:51 METAR KSLK 171751Z AUTO 23006KT 10SM CLR M14/M22 A3021 RMK AO2 SLP277 T11391217
                 11139 21294 58021 =
2019-01-17 11:51 METAR KSLK 171651Z AUTO 21004KT 10SM CLR M15/M21 A3023 RMK AO2 SLP284 T11501211
                 =
2019-01-17 10:51 METAR KSLK 171551Z AUTO 00000KT 10SM CLR M18/M20 A3027 RMK AO2 SLP297 T11781200
                 =
2019-01-17 09:51 METAR KSLK 171451Z AUTO 21004KT 10SM CLR M21/M23 A3027 RMK AO2 SLP300 T12111228
                 51012 =
2019-01-17 08:51 METAR KSLK 171351Z AUTO 00000KT 10SM CLR M25/M26 A3027 RMK AO2 SLP301 T12501256
                 =
2019-01-17 07:51 METAR KSLK 171251Z AUTO 21003KT 10SM CLR M29/M31 A3026 RMK AO2 SLP300 T12941306
                 =
2019-01-17 06:51 METAR KSLK 171151Z AUTO 00000KT 10SM CLR M29/M32 A3024 RMK AO2 SLP290 I6000
                 T12891317 11222 21289 53007 =
2019-01-17 05:51 METAR KSLK 171051Z AUTO 23003KT 10SM CLR M27/M31 A3022 RMK AO2 SLP282 T12721306
                 =
2019-01-17 04:51 METAR KSLK 170951Z AUTO 00000KT 10SM CLR M27/M29 A3022 RMK AO2 SLP279 T12671289
                 =
2019-01-17 03:51 METAR KSLK 170851Z AUTO 00000KT 10SM CLR M27/M29 A3021 RMK AO2 SLP275 I3000
                 T12671294 51016 =
2019-01-17 02:51 METAR KSLK 170751Z AUTO 00000KT 10SM CLR M27/M30 A3021 RMK AO2 SLP269 T12721300
                 =

Support USWX by starting your Amazon purchase here.